sensor_id;sensor_type;location;lat;lon;timestamp;temperature;humidity
47861;HTU21D;33620;52.340;5.984;2023-07-20T00:00:44;17.67;79.74
47861;HTU21D;33620;52.340;5.984;2023-07-20T00:03:11;17.72;79.37
47861;HTU21D;33620;52.340;5.984;2023-07-20T00:05:43;17.80;79.04
47861;HTU21D;33620;52.340;5.984;2023-07-20T00:08:09;17.77;78.68
47861;HTU21D;33620;52.340;5.984;2023-07-20T00:10:34;17.74;79.01
47861;HTU21D;33620;52.340;5.984;2023-07-20T00:12:59;17.72;78.81
47861;HTU21D;33620;52.340;5.984;2023-07-20T00:15:25;17.74;78.56
47861;HTU21D;33620;52.340;5.984;2023-07-20T00:17:50;17.72;78.63
47861;HTU21D;33620;52.340;5.984;2023-07-20T00:20:16;17.67;78.91
47861;HTU21D;33620;52.340;5.984;2023-07-20T00:22:42;17.66;79.15
47861;HTU21D;33620;52.340;5.984;2023-07-20T00:25:07;17.69;79.19
47861;HTU21D;33620;52.340;5.984;2023-07-20T00:27:33;17.72;78.92
47861;HTU21D;33620;52.340;5.984;2023-07-20T00:29:58;17.69;78.78
47861;HTU21D;33620;52.340;5.984;2023-07-20T00:32:24;17.65;79.56
47861;HTU21D;33620;52.340;5.984;2023-07-20T00:34:49;17.65;79.16
47861;HTU21D;33620;52.340;5.984;2023-07-20T00:37:15;17.55;79.59
47861;HTU21D;33620;52.340;5.984;2023-07-20T00:39:40;17.50;80.35
47861;HTU21D;33620;52.340;5.984;2023-07-20T00:42:05;17.52;79.88
47861;HTU21D;33620;52.340;5.984;2023-07-20T00:44:31;17.43;80.49
47861;HTU21D;33620;52.340;5.984;2023-07-20T00:46:56;17.45;80.88
47861;HTU21D;33620;52.340;5.984;2023-07-20T00:49:22;17.38;80.73
47861;HTU21D;33620;52.340;5.984;2023-07-20T00:51:49;17.35;80.74
47861;HTU21D;33620;52.340;5.984;2023-07-20T00:54:15;17.28;81.56
47861;HTU21D;33620;52.340;5.984;2023-07-20T00:56:41;17.26;82.12
47861;HTU21D;33620;52.340;5.984;2023-07-20T00:59:07;17.28;82.18
47861;HTU21D;33620;52.340;5.984;2023-07-20T01:01:33;17.26;82.38
47861;HTU21D;33620;52.340;5.984;2023-07-20T01:03:58;17.19;82.39
47861;HTU21D;33620;52.340;5.984;2023-07-20T01:06:36;17.10;83.09
47861;HTU21D;33620;52.340;5.984;2023-07-20T01:09:13;17.11;83.22
47861;HTU21D;33620;52.340;5.984;2023-07-20T01:12:02;17.17;83.39
47861;HTU21D;33620;52.340;5.984;2023-07-20T01:14:29;17.13;82.83
47861;HTU21D;33620;52.340;5.984;2023-07-20T01:16:55;17.09;82.87
47861;HTU21D;33620;52.340;5.984;2023-07-20T01:19:20;17.06;82.88
47861;HTU21D;33620;52.340;5.984;2023-07-20T01:32:57;17.18;83.31
47861;HTU21D;33620;52.340;5.984;2023-07-20T01:35:26;17.22;83.11
47861;HTU21D;33620;52.340;5.984;2023-07-20T01:37:53;17.23;83.08
47861;HTU21D;33620;52.340;5.984;2023-07-20T01:40:19;17.24;82.39
47861;HTU21D;33620;52.340;5.984;2023-07-20T01:42:48;17.21;82.36
47861;HTU21D;33620;52.340;5.984;2023-07-20T01:45:14;17.20;82.55
47861;HTU21D;33620;52.340;5.984;2023-07-20T01:47:39;17.16;82.62
47861;HTU21D;33620;52.340;5.984;2023-07-20T01:50:06;17.13;82.91
47861;HTU21D;33620;52.340;5.984;2023-07-20T01:52:31;17.13;82.68
47861;HTU21D;33620;52.340;5.984;2023-07-20T01:54:57;17.05;82.48
47861;HTU21D;33620;52.340;5.984;2023-07-20T01:57:22;17.04;83.02
47861;HTU21D;33620;52.340;5.984;2023-07-20T01:59:47;17.04;82.80
47861;HTU21D;33620;52.340;5.984;2023-07-20T02:02:13;17.04;82.69
47861;HTU21D;33620;52.340;5.984;2023-07-20T02:04:38;17.06;82.87
47861;HTU21D;33620;52.340;5.984;2023-07-20T02:07:04;17.08;82.85
47861;HTU21D;33620;52.340;5.984;2023-07-20T02:09:29;17.06;82.50
47861;HTU21D;33620;52.340;5.984;2023-07-20T02:11:55;16.98;82.56
47861;HTU21D;33620;52.340;5.984;2023-07-20T02:14:20;16.94;82.80
47861;HTU21D;33620;52.340;5.984;2023-07-20T02:16:47;16.93;82.94
47861;HTU21D;33620;52.340;5.984;2023-07-20T02:19:16;16.93;82.81
47861;HTU21D;33620;52.340;5.984;2023-07-20T02:21:42;16.90;82.89
47861;HTU21D;33620;52.340;5.984;2023-07-20T02:24:07;16.90;82.70
47861;HTU21D;33620;52.340;5.984;2023-07-20T02:26:33;16.84;82.50
47861;HTU21D;33620;52.340;5.984;2023-07-20T02:28:58;16.77;82.62
47861;HTU21D;33620;52.340;5.984;2023-07-20T02:31:23;16.70;82.61
47861;HTU21D;33620;52.340;5.984;2023-07-20T02:33:49;16.64;83.39
47861;HTU21D;33620;52.340;5.984;2023-07-20T02:36:14;16.61;83.42
47861;HTU21D;33620;52.340;5.984;2023-07-20T02:38:42;16.60;83.36
47861;HTU21D;33620;52.340;5.984;2023-07-20T02:41:07;16.59;83.48
47861;HTU21D;33620;52.340;5.984;2023-07-20T02:43:33;16.59;83.40
47861;HTU21D;33620;52.340;5.984;2023-07-20T02:45:58;16.59;83.29
47861;HTU21D;33620;52.340;5.984;2023-07-20T02:48:23;16.56;83.29
47861;HTU21D;33620;52.340;5.984;2023-07-20T02:50:49;16.54;83.45
47861;HTU21D;33620;52.340;5.984;2023-07-20T02:53:14;16.54;83.16
47861;HTU21D;33620;52.340;5.984;2023-07-20T02:55:39;16.51;83.15
47861;HTU21D;33620;52.340;5.984;2023-07-20T02:58:05;16.50;83.37
47861;HTU21D;33620;52.340;5.984;2023-07-20T03:00:30;16.56;83.46
47861;HTU21D;33620;52.340;5.984;2023-07-20T03:02:56;16.55;83.10
47861;HTU21D;33620;52.340;5.984;2023-07-20T03:05:22;16.47;83.04
47861;HTU21D;33620;52.340;5.984;2023-07-20T03:07:50;16.43;83.23
47861;HTU21D;33620;52.340;5.984;2023-07-20T03:10:16;16.37;83.38
47861;HTU21D;33620;52.340;5.984;2023-07-20T03:12:41;16.33;83.36
47861;HTU21D;33620;52.340;5.984;2023-07-20T03:15:07;16.33;83.59
47861;HTU21D;33620;52.340;5.984;2023-07-20T03:17:33;16.36;83.42
47861;HTU21D;33620;52.340;5.984;2023-07-20T03:19:59;16.35;83.06
47861;HTU21D;33620;52.340;5.984;2023-07-20T03:22:26;16.32;83.01
47861;HTU21D;33620;52.340;5.984;2023-07-20T03:24:51;16.30;82.97
47861;HTU21D;33620;52.340;5.984;2023-07-20T03:27:18;16.27;83.16
47861;HTU21D;33620;52.340;5.984;2023-07-20T03:29:43;16.27;83.25
47861;HTU21D;33620;52.340;5.984;2023-07-20T03:32:09;16.26;83.07
47861;HTU21D;33620;52.340;5.984;2023-07-20T03:34:35;16.21;83.05
47861;HTU21D;33620;52.340;5.984;2023-07-20T03:37:00;16.18;83.12
47861;HTU21D;33620;52.340;5.984;2023-07-20T03:39:26;16.14;83.11
47861;HTU21D;33620;52.340;5.984;2023-07-20T03:41:52;16.08;83.19
47861;HTU21D;33620;52.340;5.984;2023-07-20T03:44:17;16.03;83.08
47861;HTU21D;33620;52.340;5.984;2023-07-20T03:46:43;15.98;83.16
47861;HTU21D;33620;52.340;5.984;2023-07-20T03:49:09;15.89;82.92
47861;HTU21D;33620;52.340;5.984;2023-07-20T03:51:35;15.80;82.71
47861;HTU21D;33620;52.340;5.984;2023-07-20T03:54:01;15.65;82.75
47861;HTU21D;33620;52.340;5.984;2023-07-20T03:56:26;15.59;83.61
47861;HTU21D;33620;52.340;5.984;2023-07-20T03:58:52;15.57;83.64
47861;HTU21D;33620;52.340;5.984;2023-07-20T04:01:17;15.57;83.56
47861;HTU21D;33620;52.340;5.984;2023-07-20T04:03:43;15.59;83.43
47861;HTU21D;33620;52.340;5.984;2023-07-20T04:06:08;15.59;83.45
47861;HTU21D;33620;52.340;5.984;2023-07-20T04:08:35;15.57;83.21
47861;HTU21D;33620;52.340;5.984;2023-07-20T04:11:03;15.55;83.19
47861;HTU21D;33620;52.340;5.984;2023-07-20T04:13:29;15.55;83.16
47861;HTU21D;33620;52.340;5.984;2023-07-20T04:15:58;15.53;83.13
47861;HTU21D;33620;52.340;5.984;2023-07-20T04:18:24;15.54;83.16
47861;HTU21D;33620;52.340;5.984;2023-07-20T04:20:49;15.54;83.34
47861;HTU21D;33620;52.340;5.984;2023-07-20T04:23:14;15.56;83.21
47861;HTU21D;33620;52.340;5.984;2023-07-20T04:25:40;15.59;83.18
47861;HTU21D;33620;52.340;5.984;2023-07-20T04:28:06;15.60;83.03
47861;HTU21D;33620;52.340;5.984;2023-07-20T04:30:34;15.58;83.26
47861;HTU21D;33620;52.340;5.984;2023-07-20T04:33:00;15.57;83.22
47861;HTU21D;33620;52.340;5.984;2023-07-20T04:35:52;15.54;83.09
47861;HTU21D;33620;52.340;5.984;2023-07-20T04:38:18;15.49;83.14
47861;HTU21D;33620;52.340;5.984;2023-07-20T04:40:44;15.42;83.13
47861;HTU21D;33620;52.340;5.984;2023-07-20T04:43:10;15.32;83.67
47861;HTU21D;33620;52.340;5.984;2023-07-20T04:45:35;15.25;83.54
47861;HTU21D;33620;52.340;5.984;2023-07-20T04:48:01;15.24;84.15
47861;HTU21D;33620;52.340;5.984;2023-07-20T04:50:26;15.17;83.74
47861;HTU21D;33620;52.340;5.984;2023-07-20T04:52:51;15.13;84.56
47861;HTU21D;33620;52.340;5.984;2023-07-20T04:55:17;15.12;84.55
47861;HTU21D;33620;52.340;5.984;2023-07-20T04:57:43;15.15;84.73
47861;HTU21D;33620;52.340;5.984;2023-07-20T05:00:09;15.21;84.78
47861;HTU21D;33620;52.340;5.984;2023-07-20T05:02:36;15.24;84.87
47861;HTU21D;33620;52.340;5.984;2023-07-20T05:05:03;15.28;84.57
47861;HTU21D;33620;52.340;5.984;2023-07-20T05:07:31;15.36;84.52
47861;HTU21D;33620;52.340;5.984;2023-07-20T05:09:56;15.42;84.53
47861;HTU21D;33620;52.340;5.984;2023-07-20T05:12:22;15.47;84.26
47861;HTU21D;33620;52.340;5.984;2023-07-20T05:14:47;15.48;84.23
47861;HTU21D;33620;52.340;5.984;2023-07-20T05:17:12;15.47;84.41
47861;HTU21D;33620;52.340;5.984;2023-07-20T05:19:38;15.53;84.66
47861;HTU21D;33620;52.340;5.984;2023-07-20T05:22:04;15.59;84.79
47861;HTU21D;33620;52.340;5.984;2023-07-20T05:24:30;15.63;84.76
47861;HTU21D;33620;52.340;5.984;2023-07-20T05:26:56;15.68;85.00
47861;HTU21D;33620;52.340;5.984;2023-07-20T05:29:21;15.74;85.09
47861;HTU21D;33620;52.340;5.984;2023-07-20T05:31:47;15.80;85.19
47861;HTU21D;33620;52.340;5.984;2023-07-20T05:34:12;15.89;85.29
47861;HTU21D;33620;52.340;5.984;2023-07-20T05:36:38;15.96;84.93
47861;HTU21D;33620;52.340;5.984;2023-07-20T05:39:03;16.00;84.93
47861;HTU21D;33620;52.340;5.984;2023-07-20T05:41:29;16.05;84.90
47861;HTU21D;33620;52.340;5.984;2023-07-20T05:43:54;16.05;84.55
47861;HTU21D;33620;52.340;5.984;2023-07-20T05:46:19;16.08;84.35
47861;HTU21D;33620;52.340;5.984;2023-07-20T05:48:45;16.14;84.67
47861;HTU21D;33620;52.340;5.984;2023-07-20T05:51:10;16.21;84.67
47861;HTU21D;33620;52.340;5.984;2023-07-20T05:53:36;16.29;83.90
47861;HTU21D;33620;52.340;5.984;2023-07-20T05:56:01;16.29;83.07
47861;HTU21D;33620;52.340;5.984;2023-07-20T05:58:28;16.34;83.20
47861;HTU21D;33620;52.340;5.984;2023-07-20T06:00:53;16.40;83.48
47861;HTU21D;33620;52.340;5.984;2023-07-20T06:03:19;16.45;83.41
47861;HTU21D;33620;52.340;5.984;2023-07-20T06:05:46;16.48;82.81
47861;HTU21D;33620;52.340;5.984;2023-07-20T06:08:12;16.47;81.29
47861;HTU21D;33620;52.340;5.984;2023-07-20T06:10:37;16.48;81.90
47861;HTU21D;33620;52.340;5.984;2023-07-20T06:13:03;16.49;80.70
47861;HTU21D;33620;52.340;5.984;2023-07-20T06:15:32;16.46;80.65
47861;HTU21D;33620;52.340;5.984;2023-07-20T06:17:57;16.45;79.21
47861;HTU21D;33620;52.340;5.984;2023-07-20T06:20:23;16.51;79.44
47861;HTU21D;33620;52.340;5.984;2023-07-20T06:22:49;16.56;79.59
47861;HTU21D;33620;52.340;5.984;2023-07-20T06:25:14;16.57;78.65
47861;HTU21D;33620;52.340;5.984;2023-07-20T06:27:40;16.55;79.34
47861;HTU21D;33620;52.340;5.984;2023-07-20T06:30:06;16.56;76.92
47861;HTU21D;33620;52.340;5.984;2023-07-20T06:32:31;16.59;77.02
47861;HTU21D;33620;52.340;5.984;2023-07-20T06:34:57;16.60;76.99
47861;HTU21D;33620;52.340;5.984;2023-07-20T06:37:23;16.63;76.98
47861;HTU21D;33620;52.340;5.984;2023-07-20T06:39:49;16.70;77.11
47861;HTU21D;33620;52.340;5.984;2023-07-20T06:42:14;16.73;77.08
47861;HTU21D;33620;52.340;5.984;2023-07-20T06:44:39;16.75;77.46
47861;HTU21D;33620;52.340;5.984;2023-07-20T06:47:05;16.73;77.52
47861;HTU21D;33620;52.340;5.984;2023-07-20T06:49:30;16.77;77.02
47861;HTU21D;33620;52.340;5.984;2023-07-20T06:51:56;16.81;76.71
47861;HTU21D;33620;52.340;5.984;2023-07-20T06:54:21;16.82;76.64
47861;HTU21D;33620;52.340;5.984;2023-07-20T06:56:47;16.88;77.23
47861;HTU21D;33620;52.340;5.984;2023-07-20T06:59:12;16.89;77.64
47861;HTU21D;33620;52.340;5.984;2023-07-20T07:01:38;16.88;76.73
47861;HTU21D;33620;52.340;5.984;2023-07-20T07:04:04;16.88;76.41
47861;HTU21D;33620;52.340;5.984;2023-07-20T07:06:30;16.89;76.47
47861;HTU21D;33620;52.340;5.984;2023-07-20T07:08:56;16.89;75.12
47861;HTU21D;33620;52.340;5.984;2023-07-20T07:11:21;16.93;75.60
47861;HTU21D;33620;52.340;5.984;2023-07-20T07:13:47;16.99;75.54
47861;HTU21D;33620;52.340;5.984;2023-07-20T07:16:15;17.02;74.89
47861;HTU21D;33620;52.340;5.984;2023-07-20T07:18:44;17.08;74.35
47861;HTU21D;33620;52.340;5.984;2023-07-20T07:21:10;17.15;73.72
47861;HTU21D;33620;52.340;5.984;2023-07-20T07:23:35;17.19;73.51
47861;HTU21D;33620;52.340;5.984;2023-07-20T07:26:00;17.28;74.94
47861;HTU21D;33620;52.340;5.984;2023-07-20T07:28:28;17.31;74.99
47861;HTU21D;33620;52.340;5.984;2023-07-20T07:30:54;17.30;74.09
47861;HTU21D;33620;52.340;5.984;2023-07-20T07:33:20;17.17;72.51
47861;HTU21D;33620;52.340;5.984;2023-07-20T07:35:45;17.23;74.38
47861;HTU21D;33620;52.340;5.984;2023-07-20T07:38:11;17.25;74.24
47861;HTU21D;33620;52.340;5.984;2023-07-20T07:40:36;17.28;71.63
47861;HTU21D;33620;52.340;5.984;2023-07-20T07:43:01;17.31;71.70
47861;HTU21D;33620;52.340;5.984;2023-07-20T07:45:27;17.31;72.71
47861;HTU21D;33620;52.340;5.984;2023-07-20T07:47:52;17.30;72.45
47861;HTU21D;33620;52.340;5.984;2023-07-20T07:50:18;17.31;71.77
47861;HTU21D;33620;52.340;5.984;2023-07-20T07:52:43;17.36;71.67
47861;HTU21D;33620;52.340;5.984;2023-07-20T07:55:09;17.40;70.64
47861;HTU21D;33620;52.340;5.984;2023-07-20T07:57:34;17.46;71.19
47861;HTU21D;33620;52.340;5.984;2023-07-20T08:00:00;17.48;68.29
47861;HTU21D;33620;52.340;5.984;2023-07-20T08:02:25;17.50;68.57
47861;HTU21D;33620;52.340;5.984;2023-07-20T08:04:51;17.51;68.86
47861;HTU21D;33620;52.340;5.984;2023-07-20T08:07:17;17.61;68.71
47861;HTU21D;33620;52.340;5.984;2023-07-20T08:09:43;17.72;69.12
47861;HTU21D;33620;52.340;5.984;2023-07-20T08:12:08;17.80;68.81
47861;HTU21D;33620;52.340;5.984;2023-07-20T08:14:33;17.91;69.42
47861;HTU21D;33620;52.340;5.984;2023-07-20T08:16:59;18.04;69.79
47861;HTU21D;33620;52.340;5.984;2023-07-20T08:19:24;18.13;68.41
47861;HTU21D;33620;52.340;5.984;2023-07-20T08:21:50;18.14;68.42
47861;HTU21D;33620;52.340;5.984;2023-07-20T08:24:15;18.11;68.00
47861;HTU21D;33620;52.340;5.984;2023-07-20T08:26:40;18.06;67.52
47861;HTU21D;33620;52.340;5.984;2023-07-20T08:29:06;18.05;67.75
47861;HTU21D;33620;52.340;5.984;2023-07-20T08:31:31;17.95;67.94
47861;HTU21D;33620;52.340;5.984;2023-07-20T08:33:56;17.99;68.81
47861;HTU21D;33620;52.340;5.984;2023-07-20T08:36:22;18.07;69.27
47861;HTU21D;33620;52.340;5.984;2023-07-20T08:38:48;18.19;67.96
47861;HTU21D;33620;52.340;5.984;2023-07-20T08:41:14;18.34;67.55
47861;HTU21D;33620;52.340;5.984;2023-07-20T08:43:42;18.52;66.82
47861;HTU21D;33620;52.340;5.984;2023-07-20T08:46:11;18.70;66.53
47861;HTU21D;33620;52.340;5.984;2023-07-20T08:48:38;18.73;63.66
47861;HTU21D;33620;52.340;5.984;2023-07-20T08:51:04;18.91;63.92
47861;HTU21D;33620;52.340;5.984;2023-07-20T08:53:31;19.10;63.68
47861;HTU21D;33620;52.340;5.984;2023-07-20T08:55:58;19.26;61.03
47861;HTU21D;33620;52.340;5.984;2023-07-20T08:58:25;19.41;62.15
47861;HTU21D;33620;52.340;5.984;2023-07-20T09:00:52;19.51;57.69
47861;HTU21D;33620;52.340;5.984;2023-07-20T09:03:18;19.62;56.86
47861;HTU21D;33620;52.340;5.984;2023-07-20T09:05:44;19.79;57.30
47861;HTU21D;33620;52.340;5.984;2023-07-20T09:08:10;19.94;58.46
47861;HTU21D;33620;52.340;5.984;2023-07-20T09:10:35;20.02;56.71
47861;HTU21D;33620;52.340;5.984;2023-07-20T09:13:01;20.16;59.86
47861;HTU21D;33620;52.340;5.984;2023-07-20T09:15:26;20.21;56.72
47861;HTU21D;33620;52.340;5.984;2023-07-20T09:17:52;20.35;58.40
47861;HTU21D;33620;52.340;5.984;2023-07-20T09:20:19;20.46;57.37
47861;HTU21D;33620;52.340;5.984;2023-07-20T09:22:45;20.54;58.23
47861;HTU21D;33620;52.340;5.984;2023-07-20T09:27:40;20.73;58.76
47861;HTU21D;33620;52.340;5.984;2023-07-20T09:30:06;20.83;58.04
47861;HTU21D;33620;52.340;5.984;2023-07-20T09:32:43;21.00;57.34
47861;HTU21D;33620;52.340;5.984;2023-07-20T09:35:22;21.02;55.55
47861;HTU21D;33620;52.340;5.984;2023-07-20T09:37:53;21.06;56.21
47861;HTU21D;33620;52.340;5.984;2023-07-20T09:40:20;21.21;57.64
47861;HTU21D;33620;52.340;5.984;2023-07-20T09:42:46;21.35;57.59
47861;HTU21D;33620;52.340;5.984;2023-07-20T09:45:12;21.48;56.23
47861;HTU21D;33620;52.340;5.984;2023-07-20T09:47:38;21.64;54.86
47861;HTU21D;33620;52.340;5.984;2023-07-20T09:50:05;21.65;55.61
47861;HTU21D;33620;52.340;5.984;2023-07-20T09:52:39;21.70;53.88
47861;HTU21D;33620;52.340;5.984;2023-07-20T09:55:09;21.54;53.67
47861;HTU21D;33620;52.340;5.984;2023-07-20T09:57:36;21.42;54.08
47861;HTU21D;33620;52.340;5.984;2023-07-20T10:00:04;21.16;51.83
47861;HTU21D;33620;52.340;5.984;2023-07-20T10:02:37;20.96;52.98
47861;HTU21D;33620;52.340;5.984;2023-07-20T10:05:06;20.98;54.71
47861;HTU21D;33620;52.340;5.984;2023-07-20T10:07:36;21.16;54.19
47861;HTU21D;33620;52.340;5.984;2023-07-20T10:10:02;21.31;54.53
47861;HTU21D;33620;52.340;5.984;2023-07-20T10:12:29;21.44;53.07
47861;HTU21D;33620;52.340;5.984;2023-07-20T10:20:20;21.84;52.48
47861;HTU21D;33620;52.340;5.984;2023-07-20T10:22:48;22.08;50.92
47861;HTU21D;33620;52.340;5.984;2023-07-20T10:25:15;22.29;51.45
47861;HTU21D;33620;52.340;5.984;2023-07-20T10:27:41;22.46;50.37
47861;HTU21D;33620;52.340;5.984;2023-07-20T10:30:07;22.56;49.34
47861;HTU21D;33620;52.340;5.984;2023-07-20T10:32:33;22.22;48.55
47861;HTU21D;33620;52.340;5.984;2023-07-20T10:34:58;21.92;50.74
47861;HTU21D;33620;52.340;5.984;2023-07-20T10:37:53;21.84;51.11
47861;HTU21D;33620;52.340;5.984;2023-07-20T10:40:31;21.74;50.35
47861;HTU21D;33620;52.340;5.984;2023-07-20T10:42:59;21.65;48.56
47861;HTU21D;33620;52.340;5.984;2023-07-20T10:48:06;21.62;48.44
47861;HTU21D;33620;52.340;5.984;2023-07-20T10:50:35;21.59;50.65
47861;HTU21D;33620;52.340;5.984;2023-07-20T10:53:14;21.52;51.16
47861;HTU21D;33620;52.340;5.984;2023-07-20T10:55:40;21.52;51.75
47861;HTU21D;33620;52.340;5.984;2023-07-20T10:58:11;21.48;51.71
47861;HTU21D;33620;52.340;5.984;2023-07-20T11:00:37;21.52;51.96
47861;HTU21D;33620;52.340;5.984;2023-07-20T11:03:04;21.43;51.91
47861;HTU21D;33620;52.340;5.984;2023-07-20T11:05:38;21.33;50.45
47861;HTU21D;33620;52.340;5.984;2023-07-20T11:08:38;21.24;51.02
47861;HTU21D;33620;52.340;5.984;2023-07-20T11:11:25;21.14;50.26
47861;HTU21D;33620;52.340;5.984;2023-07-20T11:13:58;21.04;51.89
47861;HTU21D;33620;52.340;5.984;2023-07-20T11:16:38;20.91;51.70
47861;HTU21D;33620;52.340;5.984;2023-07-20T11:19:05;20.91;51.84
47861;HTU21D;33620;52.340;5.984;2023-07-20T11:21:37;20.84;52.20
47861;HTU21D;33620;52.340;5.984;2023-07-20T11:24:06;20.90;52.19
47861;HTU21D;33620;52.340;5.984;2023-07-20T11:26:46;20.93;51.66
47861;HTU21D;33620;52.340;5.984;2023-07-20T11:29:13;20.96;50.49
47861;HTU21D;33620;52.340;5.984;2023-07-20T11:31:40;21.02;51.73
47861;HTU21D;33620;52.340;5.984;2023-07-20T11:34:16;21.11;51.79
47861;HTU21D;33620;52.340;5.984;2023-07-20T11:36:44;21.16;51.34
47861;HTU21D;33620;52.340;5.984;2023-07-20T11:39:11;21.17;50.76
47861;HTU21D;33620;52.340;5.984;2023-07-20T11:41:37;21.35;52.16
47861;HTU21D;33620;52.340;5.984;2023-07-20T11:44:04;21.37;51.50
47861;HTU21D;33620;52.340;5.984;2023-07-20T11:46:31;21.45;49.85
47861;HTU21D;33620;52.340;5.984;2023-07-20T11:48:58;21.51;50.32
47861;HTU21D;33620;52.340;5.984;2023-07-20T11:51:31;21.58;50.08
47861;HTU21D;33620;52.340;5.984;2023-07-20T11:53:57;21.59;52.30
47861;HTU21D;33620;52.340;5.984;2023-07-20T11:56:24;21.51;55.04
47861;HTU21D;33620;52.340;5.984;2023-07-20T11:58:50;21.47;56.11
47861;HTU21D;33620;52.340;5.984;2023-07-20T12:01:16;21.39;56.07
47861;HTU21D;33620;52.340;5.984;2023-07-20T12:03:43;21.33;57.00
47861;HTU21D;33620;52.340;5.984;2023-07-20T12:06:11;21.32;56.74
47861;HTU21D;33620;52.340;5.984;2023-07-20T12:08:41;21.25;56.81
47861;HTU21D;33620;52.340;5.984;2023-07-20T12:11:07;21.07;56.66
47861;HTU21D;33620;52.340;5.984;2023-07-20T12:13:37;21.00;56.77
47861;HTU21D;33620;52.340;5.984;2023-07-20T12:16:10;21.03;56.97
47861;HTU21D;33620;52.340;5.984;2023-07-20T12:18:36;21.04;57.04
47861;HTU21D;33620;52.340;5.984;2023-07-20T12:21:01;20.95;55.75
47861;HTU21D;33620;52.340;5.984;2023-07-20T12:23:40;21.05;56.23
47861;HTU21D;33620;52.340;5.984;2023-07-20T12:26:07;21.17;55.95
47861;HTU21D;33620;52.340;5.984;2023-07-20T12:28:38;21.21;56.84
47861;HTU21D;33620;52.340;5.984;2023-07-20T12:31:04;21.07;56.38
47861;HTU21D;33620;52.340;5.984;2023-07-20T12:33:30;21.03;56.68
47861;HTU21D;33620;52.340;5.984;2023-07-20T12:35:55;21.00;58.13
47861;HTU21D;33620;52.340;5.984;2023-07-20T12:38:23;20.98;56.78
47861;HTU21D;33620;52.340;5.984;2023-07-20T12:40:49;20.95;57.30
47861;HTU21D;33620;52.340;5.984;2023-07-20T12:43:14;20.96;57.70
47861;HTU21D;33620;52.340;5.984;2023-07-20T12:45:39;20.94;57.57
47861;HTU21D;33620;52.340;5.984;2023-07-20T12:48:06;20.84;56.97
47861;HTU21D;33620;52.340;5.984;2023-07-20T12:50:31;20.71;57.51
47861;HTU21D;33620;52.340;5.984;2023-07-20T12:52:56;20.76;58.27
47861;HTU21D;33620;52.340;5.984;2023-07-20T12:55:22;20.87;58.03
47861;HTU21D;33620;52.340;5.984;2023-07-20T12:57:47;20.95;56.45
47861;HTU21D;33620;52.340;5.984;2023-07-20T13:00:14;21.07;57.39
47861;HTU21D;33620;52.340;5.984;2023-07-20T13:02:40;21.22;57.23
47861;HTU21D;33620;52.340;5.984;2023-07-20T13:05:06;21.33;55.56
47861;HTU21D;33620;52.340;5.984;2023-07-20T13:07:37;21.44;55.37
47861;HTU21D;33620;52.340;5.984;2023-07-20T13:10:04;21.48;54.42
47861;HTU21D;33620;52.340;5.984;2023-07-20T13:12:31;21.64;55.91
47861;HTU21D;33620;52.340;5.984;2023-07-20T13:14:57;21.78;55.48
47861;HTU21D;33620;52.340;5.984;2023-07-20T13:17:26;21.89;53.79
47861;HTU21D;33620;52.340;5.984;2023-07-20T13:19:52;21.96;53.38
47861;HTU21D;33620;52.340;5.984;2023-07-20T13:22:18;22.09;52.56
47861;HTU21D;33620;52.340;5.984;2023-07-20T13:24:45;22.24;53.66
47861;HTU21D;33620;52.340;5.984;2023-07-20T13:27:15;22.35;51.01
47861;HTU21D;33620;52.340;5.984;2023-07-20T13:29:40;22.40;52.94
47861;HTU21D;33620;52.340;5.984;2023-07-20T13:32:07;22.38;51.21
47861;HTU21D;33620;52.340;5.984;2023-07-20T13:34:33;22.36;50.29
47861;HTU21D;33620;52.340;5.984;2023-07-20T13:36:58;22.31;49.77
47861;HTU21D;33620;52.340;5.984;2023-07-20T13:39:24;22.28;49.64
47861;HTU21D;33620;52.340;5.984;2023-07-20T13:41:52;22.23;50.53
47861;HTU21D;33620;52.340;5.984;2023-07-20T13:44:17;22.22;50.66
47861;HTU21D;33620;52.340;5.984;2023-07-20T13:46:43;22.40;51.75
47861;HTU21D;33620;52.340;5.984;2023-07-20T13:49:08;22.60;51.24
47861;HTU21D;33620;52.340;5.984;2023-07-20T13:51:34;22.79;51.77
47861;HTU21D;33620;52.340;5.984;2023-07-20T13:53:59;23.02;50.88
47861;HTU21D;33620;52.340;5.984;2023-07-20T13:56:26;23.09;49.63
47861;HTU21D;33620;52.340;5.984;2023-07-20T13:58:52;23.25;45.96
47861;HTU21D;33620;52.340;5.984;2023-07-20T14:01:18;23.17;45.30
47861;HTU21D;33620;52.340;5.984;2023-07-20T14:03:43;23.00;45.21
47861;HTU21D;33620;52.340;5.984;2023-07-20T14:06:09;22.87;46.36
47861;HTU21D;33620;52.340;5.984;2023-07-20T14:08:34;22.82;47.53
47861;HTU21D;33620;52.340;5.984;2023-07-20T14:11:00;22.77;50.30
47861;HTU21D;33620;52.340;5.984;2023-07-20T14:13:26;22.68;51.04
47861;HTU21D;33620;52.340;5.984;2023-07-20T14:15:51;22.66;52.70
47861;HTU21D;33620;52.340;5.984;2023-07-20T14:18:16;22.52;48.78
47861;HTU21D;33620;52.340;5.984;2023-07-20T14:20:42;22.47;49.35
47861;HTU21D;33620;52.340;5.984;2023-07-20T14:23:09;22.52;49.11
47861;HTU21D;33620;52.340;5.984;2023-07-20T14:25:34;22.57;51.04
47861;HTU21D;33620;52.340;5.984;2023-07-20T14:28:01;22.52;50.19
47861;HTU21D;33620;52.340;5.984;2023-07-20T14:30:26;22.49;51.19
47861;HTU21D;33620;52.340;5.984;2023-07-20T14:32:51;22.47;50.69
47861;HTU21D;33620;52.340;5.984;2023-07-20T14:35:17;22.44;49.83
47861;HTU21D;33620;52.340;5.984;2023-07-20T14:37:42;22.37;48.99
47861;HTU21D;33620;52.340;5.984;2023-07-20T14:40:12;22.31;50.43
47861;HTU21D;33620;52.340;5.984;2023-07-20T14:42:37;22.28;51.24
47861;HTU21D;33620;52.340;5.984;2023-07-20T14:45:04;22.31;51.66
47861;HTU21D;33620;52.340;5.984;2023-07-20T14:47:30;22.33;51.50
47861;HTU21D;33620;52.340;5.984;2023-07-20T14:49:58;22.28;49.83
47861;HTU21D;33620;52.340;5.984;2023-07-20T14:52:23;22.20;49.60
47861;HTU21D;33620;52.340;5.984;2023-07-20T14:54:48;22.10;49.28
47861;HTU21D;33620;52.340;5.984;2023-07-20T14:57:14;22.12;50.33
47861;HTU21D;33620;52.340;5.984;2023-07-20T14:59:39;22.16;51.69
47861;HTU21D;33620;52.340;5.984;2023-07-20T15:02:06;22.14;51.75
47861;HTU21D;33620;52.340;5.984;2023-07-20T15:04:32;22.17;52.06
47861;HTU21D;33620;52.340;5.984;2023-07-20T15:06:57;22.14;52.81
47861;HTU21D;33620;52.340;5.984;2023-07-20T15:09:23;22.17;53.70
47861;HTU21D;33620;52.340;5.984;2023-07-20T15:11:48;22.22;54.66
47861;HTU21D;33620;52.340;5.984;2023-07-20T15:14:13;22.35;55.03
47861;HTU21D;33620;52.340;5.984;2023-07-20T15:16:39;22.47;53.20
47861;HTU21D;33620;52.340;5.984;2023-07-20T15:19:04;22.54;52.87
47861;HTU21D;33620;52.340;5.984;2023-07-20T15:21:30;22.69;53.17
47861;HTU21D;33620;52.340;5.984;2023-07-20T15:23:57;22.73;51.45
47861;HTU21D;33620;52.340;5.984;2023-07-20T15:26:23;22.63;51.01
47861;HTU21D;33620;52.340;5.984;2023-07-20T15:28:48;22.56;50.75
47861;HTU21D;33620;52.340;5.984;2023-07-20T15:31:14;22.63;53.00
47861;HTU21D;33620;52.340;5.984;2023-07-20T15:33:39;22.60;52.30